Time;durP1;ratioP1;P1;durP2;ratioP2;P2;SDS_P1;SDS_P2;PMS_P1;PMS_P2;Temp;Humidity;BMP_temperature;BMP_pressure;BME280_temperature;BME280_humidity;BME280_pressure;Samples;Min_cycle;Max_cycle;Signal;HPM_P1;HPM_P2
2021/09/12 00:01:22;;;;;;;;;7.75;7.75;;;;;25.05;38.48;101431.66;5077171;28;45344;-52
2021/09/12 00:03:48;;;;;;;;;7.00;7.00;;;;;25.04;38.72;101413.19;5076595;28;46593;-55
2021/09/12 00:06:13;;;;;;;;;9.00;8.50;;;;;25.04;38.68;101423.81;5076730;28;45379;-54
2021/09/12 00:08:38;;;;;;;;;8.75;8.75;;;;;25.01;39.16;101417.75;5077176;28;45256;-53
2021/09/12 00:11:05;;;;;;;;;10.00;8.75;;;;;25.03;39.15;101420.28;5077239;28;45511;-54
2021/09/12 00:13:30;;;;;;;;;9.75;9.75;;;;;25.03;38.78;101422.94;5076540;28;45282;-53
2021/09/12 00:15:56;;;;;;;;;10.25;8.50;;;;;25.04;38.65;101426.44;5076441;28;45229;-53
2021/09/12 00:18:21;;;;;;;;;9.25;7.00;;;;;25.04;38.49;101421.16;5076561;28;45181;-53
2021/09/12 00:20:46;;;;;;;;;7.25;7.00;;;;;25.03;38.56;101419.44;5076696;28;45267;-54
2021/09/12 00:23:12;;;;;;;;;7.00;7.00;;;;;25.03;38.63;101419.44;5076195;28;45373;-53
2021/09/12 00:25:37;;;;;;;;;7.00;7.00;;;;;25.01;38.97;101420.38;5076699;28;45410;-52
2021/09/12 00:28:02;;;;;;;;;7.00;6.50;;;;;25.02;38.75;101421.25;5076589;28;45326;-53
2021/09/12 00:30:28;;;;;;;;;9.25;8.00;;;;;25.01;38.54;101415.09;5076551;28;45347;-53
2021/09/12 00:32:53;;;;;;;;;9.25;8.25;;;;;25.03;38.78;101427.41;5076409;28;45406;-52
2021/09/12 00:35:19;;;;;;;;;7.50;7.00;;;;;25.03;39.25;101424.75;5061666;28;45410;-54
2021/09/12 00:37:47;;;;;;;;;9.00;7.00;;;;;25.01;39.27;101417.75;5080046;28;45525;-54
2021/09/12 00:40:13;;;;;;;;;8.25;6.50;;;;;25.01;38.88;101414.25;5080281;28;45650;-54
2021/09/12 00:42:39;;;;;;;;;10.00;7.25;;;;;25.01;38.98;101419.56;5080006;28;45437;-54
2021/09/12 00:45:06;;;;;;;;;9.00;8.00;;;;;25.01;38.66;101414.25;5079839;28;45286;-53
2021/09/12 00:47:31;;;;;;;;;8.00;8.00;;;;;25.01;38.95;101415.09;5080093;28;45445;-52
2021/09/12 00:49:56;;;;;;;;;10.50;9.25;;;;;25.03;39.32;101416.78;5079946;28;45186;-53
2021/09/12 00:52:23;;;;;;;;;12.00;9.25;;;;;25.01;39.42;101425.69;5079610;28;45257;-53
2021/09/12 00:54:49;;;;;;;;;10.00;9.00;;;;;25.00;39.13;101413.38;5061401;28;45759;-54
2021/09/12 00:57:15;;;;;;;;;7.50;7.50;;;;;25.01;39.59;101415.09;5079846;28;45367;-57
2021/09/12 00:59:42;;;;;;;;;10.50;9.50;;;;;24.99;39.58;101411.69;5079938;28;45435;-52
2021/09/12 01:02:11;;;;;;;;;12.50;10.25;;;;;25.00;39.19;101413.38;5079593;28;46472;-53
2021/09/12 01:04:37;;;;;;;;;8.25;8.00;;;;;25.01;39.33;101417.75;5079610;28;45795;-53
2021/09/12 01:07:05;;;;;;;;;9.25;9.25;;;;;25.01;39.05;101414.25;5079674;28;45178;-53
2021/09/12 01:09:33;;;;;;;;;10.50;9.00;;;;;25.01;39.32;101412.44;5079691;28;45647;-51
2021/09/12 01:12:00;;;;;;;;;9.75;8.75;;;;;25.01;39.65;101409.78;5079199;28;47158;-55
2021/09/12 01:14:29;;;;;;;;;11.00;9.75;;;;;24.99;39.33;101403.72;5079305;28;45375;-52
2021/09/12 01:16:55;;;;;;;;;10.00;10.00;;;;;25.01;39.67;101406.28;5079360;28;45450;-53
2021/09/12 01:19:21;;;;;;;;;9.50;9.50;;;;;25.00;39.52;101402.78;5061301;28;45569;-54
2021/09/12 01:21:46;;;;;;;;;9.50;9.50;;;;;25.00;39.81;101399.28;5079084;28;46346;-53
2021/09/12 01:24:13;;;;;;;;;10.00;9.00;;;;;25.00;39.73;101397.47;5079432;28;45379;-55
2021/09/12 01:26:39;;;;;;;;;9.25;9.25;;;;;24.98;40.10;101399.38;5079580;28;45359;-52
2021/09/12 01:29:04;;;;;;;;;10.00;10.00;;;;;24.98;39.90;101391.41;5079417;28;45479;-53
2021/09/12 01:31:31;;;;;;;;;10.75;8.25;;;;;24.98;39.38;101401.19;5078956;28;46060;-54
2021/09/12 01:33:58;;;;;;;;;9.00;9.00;;;;;24.98;39.79;101399.38;5094726;27;45345;-54
2021/09/12 01:36:23;;;;;;;;;12.00;10.00;;;;;24.99;39.85;101405.53;5079053;28;45470;-54
2021/09/12 01:38:49;;;;;;;;;12.25;10.00;;;;;24.98;39.41;101393.22;5061100;28;45431;-53
2021/09/12 01:41:15;;;;;;;;;11.75;9.50;;;;;24.97;39.65;101400.31;5078807;28;45645;-53
2021/09/12 01:43:49;;;;;;;;;6.50;6.50;;;;;24.98;39.36;101401.19;5079142;28;45389;-55
2021/09/12 01:46:16;;;;;;;;;8.75;8.75;;;;;24.97;39.68;101400.31;5078233;28;45460;-53
2021/09/12 01:48:42;;;;;;;;;10.00;10.00;;;;;24.97;39.93;101400.31;5079518;28;45606;-54
2021/09/12 01:51:08;;;;;;;;;12.25;9.50;;;;;24.94;39.66;101392.59;5094435;27;46530;-54
2021/09/12 01:53:33;;;;;;;;;9.75;9.00;;;;;24.96;39.31;101392.47;5078751;28;45713;-53
2021/09/12 01:55:59;;;;;;;;;10.50;10.00;;;;;24.95;40.13;101393.44;5078778;28;45837;-53
2021/09/12 01:58:26;;;;;;;;;11.50;9.00;;;;;24.94;39.68;101392.59;5078867;28;45552;-53
2021/09/12 02:00:51;;;;;;;;;10.00;10.00;;;;;24.95;39.55;101394.28;5078142;28;46542;-54
2021/09/12 02:03:17;;;;;;;;;12.75;11.00;;;;;24.95;39.49;101390.78;5078412;28;45320;-54
2021/09/12 02:05:42;;;;;;;;;9.75;8.50;;;;;24.96;39.22;101400.44;5079043;28;45244;-54
2021/09/12 02:08:07;;;;;;;;;7.00;5.25;;;;;24.95;39.79;101393.44;5078760;28;45514;-54
2021/09/12 02:10:33;;;;;;;;;10.50;8.00;;;;;24.94;39.77;101389.94;5078343;28;46842;-54
2021/09/12 02:12:59;;;;;;;;;10.50;8.25;;;;;24.95;39.37;101393.44;5078408;28;45936;-54
2021/09/12 02:15:24;;;;;;;;;9.75;8.25;;;;;24.95;39.75;101402.25;5078378;28;45360;-54
2021/09/12 02:17:49;;;;;;;;;8.25;8.25;;;;;24.94;39.33;101392.59;5078671;28;45415;-53
2021/09/12 02:20:15;;;;;;;;;11.00;9.25;;;;;24.94;39.84;101402.31;5078371;28;50667;-54
2021/09/12 02:22:40;;;;;;;;;9.00;9.00;;;;;24.94;39.84;101404.97;5078590;28;45396;-53
2021/09/12 02:25:06;;;;;;;;;9.25;8.00;;;;;24.92;40.08;101402.44;5078394;28;45433;-52
2021/09/12 02:27:31;;;;;;;;;8.50;7.00;;;;;24.93;39.43;101406.78;5078525;28;45315;-54
2021/09/12 02:29:57;;;;;;;;;10.75;10.00;;;;;24.92;39.40;101405.09;5077891;28;45382;-54
2021/09/12 02:32:22;;;;;;;;;8.00;7.75;;;;;24.92;39.90;101407.75;5078115;28;45354;-53
2021/09/12 02:34:47;;;;;;;;;6.75;5.75;;;;;24.92;39.21;101412.19;5078303;28;45311;-54
2021/09/12 02:37:13;;;;;;;;;7.00;7.00;;;;;24.93;39.69;101413.88;5078608;28;45243;-54
2021/09/12 02:39:38;;;;;;;;;11.75;9.50;;;;;24.92;39.69;101415.69;5077929;28;46446;-54
2021/09/12 02:42:04;;;;;;;;;8.25;7.00;;;;;24.91;39.45;101411.34;5059776;28;45288;-53
2021/09/12 02:44:29;;;;;;;;;8.00;7.25;;;;;24.91;39.40;101416.66;5078064;28;45220;-54
2021/09/12 02:46:54;;;;;;;;;6.75;6.75;;;;;24.90;39.90;101412.28;5078299;28;45223;-54
2021/09/12 02:49:20;;;;;;;;;12.00;9.25;;;;;24.90;39.94;101403.50;5059447;28;46522;-53
2021/09/12 02:51:45;;;;;;;;;10.00;9.25;;;;;24.90;39.51;101401.69;5078157;28;45229;-54
2021/09/12 02:54:10;;;;;;;;;10.00;7.75;;;;;24.90;39.39;101403.50;5077972;28;45294;-54
2021/09/12 02:56:36;;;;;;;;;10.00;8.25;;;;;24.90;39.74;101401.69;5077968;28;45325;-52
2021/09/12 02:59:01;;;;;;;;;7.25;7.00;;;;;24.90;39.74;101406.97;5077440;28;45561;-54
2021/09/12 03:01:26;;;;;;;;;8.25;8.00;;;;;24.90;39.92;101406.97;5059531;28;45196;-51
2021/09/12 03:03:52;;;;;;;;;8.75;6.25;;;;;24.89;39.66;101394.69;5077656;28;45223;-53
2021/09/12 03:06:17;;;;;;;;;8.25;6.25;;;;;24.89;39.90;101402.63;5077973;28;45194;-54
2021/09/12 03:08:43;;;;;;;;;8.75;8.50;;;;;24.87;40.21;101401.88;5077486;28;45336;-54
2021/09/12 03:11:08;;;;;;;;;8.00;8.00;;;;;24.87;39.35;101401.88;5077483;28;45362;-51
2021/09/12 03:13:34;;;;;;;;;8.25;6.75;;;;;24.88;40.10;101400.09;5077579;28;45363;-54
2021/09/12 03:15:59;;;;;;;;;7.00;7.00;;;;;24.88;40.05;101405.38;5077856;28;45633;-53
2021/09/12 03:18:25;;;;;;;;;6.50;6.50;;;;;24.88;39.96;101400.09;5077209;28;46164;-54
2021/09/12 03:20:50;;;;;;;;;8.50;6.00;;;;;24.88;40.10;101403.56;5077369;28;45369;-53
2021/09/12 03:23:15;;;;;;;;;12.25;9.50;;;;;24.88;39.44;101403.56;5077788;28;45753;-53
2021/09/12 03:25:41;;;;;;;;;7.50;7.00;;;;;24.86;40.11;101394.88;5077587;28;45574;-53
2021/09/12 03:28:06;;;;;;;;;9.75;7.25;;;;;24.87;40.11;101407.19;5077258;28;45340;-53
2021/09/12 03:30:32;;;;;;;;;7.75;7.75;;;;;24.87;40.04;101404.53;5077137;28;46373;-55
2021/09/12 03:32:57;;;;;;;;;8.75;8.00;;;;;24.86;40.04;101405.47;5077233;28;45833;-53
2021/09/12 03:35:22;;;;;;;;;7.50;6.75;;;;;24.85;39.73;101396.69;5077496;28;45365;-54
2021/09/12 03:37:48;;;;;;;;;9.00;8.00;;;;;24.86;40.23;101400.16;5077351;28;46203;-54
2021/09/12 03:40:13;;;;;;;;;9.00;8.00;;;;;24.84;39.75;101396.78;5092775;27;45377;-54
2021/09/12 03:42:39;;;;;;;;;9.75;8.00;;;;;24.85;39.42;101395.84;5077089;28;45323;-51
2021/09/12 03:45:05;;;;;;;;;9.25;8.75;;;;;24.86;39.86;101402.81;5077212;28;45279;-53
2021/09/12 03:47:30;;;;;;;;;9.25;9.00;;;;;24.83;40.16;101397.75;5076751;28;45728;-53
2021/09/12 03:49:55;;;;;;;;;9.25;8.00;;;;;24.85;40.02;101403.78;5076861;28;45233;-54
2021/09/12 03:52:21;;;;;;;;;8.25;6.00;;;;;24.83;39.34;101397.75;5058842;28;45340;-54
2021/09/12 03:54:46;;;;;;;;;7.75;7.75;;;;;24.83;39.69;101398.56;5077438;28;45474;-54
2021/09/12 03:57:11;;;;;;;;;8.00;7.25;;;;;24.83;40.10;101395.09;5076613;28;46259;-53
2021/09/12 03:59:37;;;;;;;;;8.00;8.00;;;;;24.82;39.83;101394.22;5076493;28;45446;-55
2021/09/12 04:02:02;;;;;;;;;8.00;5.25;;;;;24.80;39.74;101390.84;5076980;28;45348;-53
2021/09/12 04:04:28;;;;;;;;;9.75;8.00;;;;;24.82;39.53;101393.38;5076990;28;45314;-53
2021/09/12 04:06:53;;;;;;;;;8.00;8.00;;;;;24.82;39.64;101388.09;5076563;28;46500;-54
2021/09/12 04:09:18;;;;;;;;;9.75;7.00;;;;;24.81;39.99;101386.38;5076442;28;45349;-52
2021/09/12 04:11:44;;;;;;;;;9.25;7.50;;;;;24.80;40.15;101387.31;5076746;28;45398;-52
2021/09/12 04:14:09;;;;;;;;;7.50;7.00;;;;;24.80;40.09;101388.19;5076831;28;45604;-53
2021/09/12 04:16:35;;;;;;;;;12.00;8.25;;;;;24.79;39.70;101383.84;5075987;28;45356;-53
2021/09/12 04:19:00;;;;;;;;;6.50;6.50;;;;;24.79;39.84;101378.53;5076352;28;45390;-53
2021/09/12 04:21:25;;;;;;;;;6.25;6.25;;;;;24.77;39.77;101375.13;5058448;28;45350;-53
2021/09/12 04:23:51;;;;;;;;;10.00;7.75;;;;;24.79;40.06;101383.84;5076931;28;45341;-55
2021/09/12 04:26:16;;;;;;;;;7.50;7.50;;;;;24.78;39.57;101383.91;5076360;28;46532;-55
2021/09/12 04:28:41;;;;;;;;;6.75;6.75;;;;;24.77;40.00;101374.25;5076481;28;45757;-54
2021/09/12 04:31:07;;;;;;;;;9.75;8.00;;;;;24.78;40.12;101373.31;5076290;28;45945;-54
2021/09/12 04:33:32;;;;;;;;;7.00;5.75;;;;;24.77;39.96;101383.09;5076644;28;45473;-52
2021/09/12 04:35:58;;;;;;;;;6.50;6.00;;;;;24.77;39.69;101375.13;5076365;28;46366;-53
2021/09/12 04:38:23;;;;;;;;;9.50;7.00;;;;;24.76;39.46;101381.38;5076313;28;45427;-52
2021/09/12 04:40:49;;;;;;;;;6.25;6.25;;;;;24.77;39.97;101384.88;5076854;28;45216;-54
2021/09/12 04:43:15;;;;;;;;;7.25;6.50;;;;;24.77;39.82;101379.56;5076418;28;45560;-54
2021/09/12 04:45:40;;;;;;;;;6.25;6.25;;;;;24.77;39.63;101384.88;5076024;28;45292;-53
2021/09/12 04:48:06;;;;;;;;;10.00;7.75;;;;;24.77;40.12;101384.88;5076289;28;45391;-52
2021/09/12 04:50:31;;;;;;;;;8.50;8.50;;;;;24.77;39.52;101384.88;5076397;28;45284;-53
2021/09/12 04:52:56;;;;;;;;;5.50;5.50;;;;;24.76;39.66;101385.81;5076403;28;45354;-54
2021/09/12 04:55:22;;;;;;;;;7.25;7.00;;;;;24.75;39.70;101387.63;5075137;28;45580;-52
2021/09/12 04:57:47;;;;;;;;;7.00;7.00;;;;;24.75;39.70;101386.78;5076169;28;45200;-53
2021/09/12 05:00:13;;;;;;;;;6.50;6.50;;;;;24.76;40.07;101385.81;5075979;28;45263;-53
2021/09/12 05:02:38;;;;;;;;;8.25;7.00;;;;;24.75;40.23;101384.97;5076272;28;45408;-54
2021/09/12 05:05:04;;;;;;;;;7.25;7.25;;;;;24.76;39.63;101388.47;5075717;28;46464;-54
2021/09/12 05:07:29;;;;;;;;;7.00;7.00;;;;;24.75;39.76;101387.63;5075844;28;45300;-53
2021/09/12 05:09:55;;;;;;;;;8.50;7.00;;;;;24.73;40.53;101391.34;5076081;28;45315;-53
2021/09/12 05:12:20;;;;;;;;;6.00;6.00;;;;;24.74;40.22;101387.75;5076422;28;45413;-55
2021/09/12 05:14:45;;;;;;;;;9.50;9.00;;;;;24.70;40.25;101387.94;5075542;28;51048;-51
2021/09/12 05:17:11;;;;;;;;;7.25;7.25;;;;;24.74;39.76;101390.38;5075792;28;45399;-52
2021/09/12 05:19:36;;;;;;;;;7.25;7.25;;;;;24.73;39.68;101386.03;5075819;28;45423;-53
2021/09/12 05:22:02;;;;;;;;;9.00;9.00;;;;;24.72;40.40;101385.16;5079119;28;45340;-54
2021/09/12 05:24:27;;;;;;;;;7.50;6.75;;;;;24.70;40.25;101379.97;5079127;28;46592;-53
2021/09/12 05:26:52;;;;;;;;;9.00;8.00;;;;;24.70;39.88;101374.69;5079402;28;45337;-54
2021/09/12 05:29:18;;;;;;;;;9.50;7.25;;;;;24.71;40.38;101380.81;5079273;28;45437;-53
2021/09/12 05:31:44;;;;;;;;;9.00;7.00;;;;;24.70;40.43;101379.09;5079299;28;45633;-53
2021/09/12 05:34:10;;;;;;;;;7.50;7.50;;;;;24.70;40.31;101385.28;5078974;28;46325;-54
2021/09/12 05:36:35;;;;;;;;;9.25;9.25;;;;;24.68;40.13;101387.16;5079155;28;45195;-52
2021/09/12 05:39:01;;;;;;;;;10.25;7.75;;;;;24.68;39.93;101392.47;5079214;28;45292;-54
2021/09/12 05:41:26;;;;;;;;;9.75;8.00;;;;;24.66;40.70;101383.72;5079169;28;45509;-54
2021/09/12 05:43:51;;;;;;;;;8.75;6.75;;;;;24.64;40.17;101380.31;5078934;28;45318;-53
2021/09/12 05:46:17;;;;;;;;;9.00;9.00;;;;;24.64;40.53;101390.94;5079015;28;45216;-54
2021/09/12 05:48:42;;;;;;;;;9.00;8.00;;;;;24.63;40.09;101389.25;5078955;28;45371;-52
2021/09/12 05:51:07;;;;;;;;;7.25;7.25;;;;;24.63;40.20;101393.69;5079034;28;45781;-55
2021/09/12 05:53:33;;;;;;;;;8.00;8.00;;;;;24.62;40.39;101390.19;5078871;28;45463;-54
2021/09/12 05:55:59;;;;;;;;;10.25;8.00;;;;;24.61;40.20;101385.84;5078627;28;45390;-54
2021/09/12 05:58:24;;;;;;;;;9.00;8.50;;;;;24.60;40.41;101392.09;5079144;28;45426;-54
2021/09/12 06:00:49;;;;;;;;;9.00;8.00;;;;;24.59;40.40;101392.16;5078884;28;45251;-54
2021/09/12 06:03:15;;;;;;;;;10.25;8.50;;;;;24.56;40.33;101395.88;5078362;28;45479;-55
2021/09/12 06:05:40;;;;;;;;;8.00;8.00;;;;;24.53;40.81;101393.41;5078619;28;45403;-55
2021/09/12 06:08:06;;;;;;;;;9.25;7.50;;;;;24.53;40.49;101396.06;5077301;28;45414;-54
2021/09/12 06:10:31;;;;;;;;;8.25;8.25;;;;;24.55;40.99;101402.13;5078774;28;45458;-53
2021/09/12 06:12:57;;;;;;;;;9.25;7.00;;;;;24.57;40.92;101410.00;5078683;28;45488;-55
2021/09/12 06:15:22;;;;;;;;;8.75;8.75;;;;;24.55;40.45;101400.34;5078699;28;45335;-54
2021/09/12 06:17:47;;;;;;;;;10.00;10.00;;;;;24.57;40.57;101400.22;5078665;28;45760;-52
2021/09/12 06:20:13;;;;;;;;;9.50;7.00;;;;;24.58;40.51;101407.22;5078628;28;45299;-53
2021/09/12 06:22:46;;;;;;;;;12.50;8.50;;;;;24.59;40.67;101408.94;5078173;28;45254;-53
2021/09/12 06:25:12;;;;;;;;;8.50;8.25;;;;;24.59;40.81;101406.28;5078226;28;45840;-54
2021/09/12 06:27:38;;;;;;;;;10.50;8.25;;;;;24.60;41.05;101408.00;5078390;28;45407;-54
2021/09/12 06:30:06;;;;;;;;;9.00;8.00;;;;;24.60;40.86;101405.34;5078669;28;45217;-53
2021/09/12 06:32:31;;;;;;;;;7.00;7.00;;;;;24.60;40.50;101408.00;5077958;28;45335;-52
2021/09/12 06:34:57;;;;;;;;;8.00;8.00;;;;;24.60;40.44;101410.66;5078440;28;45197;-54
2021/09/12 06:37:22;;;;;;;;;9.50;8.25;;;;;24.60;40.78;101410.66;5078245;28;45304;-54
2021/09/12 06:39:47;;;;;;;;;8.25;8.00;;;;;24.60;40.88;101408.00;5078305;28;45562;-55
2021/09/12 06:42:12;;;;;;;;;8.00;8.00;;;;;24.59;41.12;101408.94;5077768;28;46447;-54
2021/09/12 06:44:38;;;;;;;;;9.00;8.00;;;;;24.61;40.78;101415.00;5077898;28;45428;-53
2021/09/12 06:47:04;;;;;;;;;8.75;8.25;;;;;24.61;40.66;101415.00;5078036;28;45354;-54
2021/09/12 06:49:29;;;;;;;;;10.25;8.25;;;;;24.61;40.29;101408.81;5078079;28;45589;-54
2021/09/12 06:51:55;;;;;;;;;10.25;8.25;;;;;24.61;40.93;101407.03;5078183;28;45364;-54
2021/09/12 06:54:20;;;;;;;;;9.00;8.00;;;;;24.60;40.85;101405.34;5077657;28;45340;-53
2021/09/12 06:56:45;;;;;;;;;8.25;7.25;;;;;24.61;40.98;101407.03;5077914;28;45305;-53
2021/09/12 06:59:11;;;;;;;;;7.25;7.25;;;;;24.62;41.04;101410.53;5077827;28;45304;-54
2021/09/12 07:01:36;;;;;;;;;7.75;6.75;;;;;24.61;40.63;101409.69;5077598;28;46146;-55
2021/09/12 07:04:01;;;;;;;;;9.25;8.00;;;;;24.61;40.72;101404.41;5077600;28;45338;-53
2021/09/12 07:06:27;;;;;;;;;10.00;8.75;;;;;24.61;40.40;101400.88;5077882;28;45395;-55
2021/09/12 07:08:52;;;;;;;;;9.75;6.50;;;;;24.61;40.69;101399.09;5077903;28;45257;-55
2021/09/12 07:11:17;;;;;;;;;7.75;7.75;;;;;24.63;41.06;101399.84;5077540;28;46710;-56
2021/09/12 07:13:43;;;;;;;;;7.50;7.50;;;;;24.63;40.54;101402.50;5093136;27;45343;-55
2021/09/12 07:16:09;;;;;;;;;10.00;9.00;;;;;24.64;40.91;101406.00;5077744;28;45498;-54
2021/09/12 07:18:34;;;;;;;;;9.25;8.25;;;;;24.62;40.88;101408.75;5077613;28;45551;-54
2021/09/12 07:20:59;;;;;;;;;9.00;9.00;;;;;24.64;41.11;101406.00;5077615;28;45558;-54
2021/09/12 07:23:25;;;;;;;;;6.00;6.00;;;;;24.62;40.28;101408.75;5077370;28;45348;-53
2021/09/12 07:25:51;;;;;;;;;7.75;7.00;;;;;24.63;40.80;101410.44;5077351;28;45509;-55
2021/09/12 07:28:16;;;;;;;;;7.25;7.25;;;;;24.64;40.64;101420.06;5077603;28;45613;-54
2021/09/12 07:30:42;;;;;;;;;9.25;8.25;;;;;24.64;40.77;101409.47;5077124;28;46211;-54
2021/09/12 07:33:07;;;;;;;;;7.25;7.00;;;;;24.64;40.98;101412.13;5077116;28;45356;-53
2021/09/12 07:35:33;;;;;;;;;7.50;6.25;;;;;24.65;40.60;101413.00;5077043;28;48177;-53
2021/09/12 07:37:59;;;;;;;;;7.75;7.75;;;;;24.65;40.27;101408.53;5059489;28;45423;-54
2021/09/12 07:40:25;;;;;;;;;7.00;7.00;;;;;24.65;40.28;101413.84;5076855;28;46631;-54
2021/09/12 07:42:51;;;;;;;;;8.00;7.00;;;;;24.66;40.83;101410.25;5076122;28;45329;-55
2021/09/12 07:45:16;;;;;;;;;8.00;8.00;;;;;24.67;40.98;101411.94;5077088;28;45261;-53
2021/09/12 07:47:42;;;;;;;;;10.25;9.00;;;;;24.65;41.14;101405.88;5077318;28;45757;-56
2021/09/12 07:50:08;;;;;;;;;7.50;7.25;;;;;24.68;41.02;101411.03;5076868;28;45694;-54
2021/09/12 07:52:33;;;;;;;;;10.50;8.50;;;;;24.69;40.32;101419.84;5076933;28;45411;-55
2021/09/12 07:54:58;;;;;;;;;6.00;6.00;;;;;24.69;40.94;101411.91;5077416;28;45343;-55
2021/09/12 07:57:24;;;;;;;;;11.75;8.00;;;;;24.70;41.01;101416.22;5077088;28;45301;-56
2021/09/12 07:59:49;;;;;;;;;7.00;6.50;;;;;24.68;40.24;101410.16;5062066;28;47777;-55
2021/09/12 08:02:15;;;;;;;;;9.25;6.75;;;;;24.70;40.41;101417.09;5076712;27;45285;-55
2021/09/12 08:04:41;;;;;;;;;6.25;6.25;;;;;24.69;40.74;101415.38;5076904;28;45398;-54
2021/09/12 08:07:06;;;;;;;;;7.00;7.00;;;;;24.70;41.01;101411.78;5076913;27;45284;-54
2021/09/12 08:09:32;;;;;;;;;9.00;8.25;;;;;24.70;40.93;101411.78;5076898;28;46667;-54
2021/09/12 08:11:57;;;;;;;;;8.00;6.00;;;;;24.70;40.96;101411.78;5076847;27;45685;-55
2021/09/12 08:14:23;;;;;;;;;8.50;8.50;;;;;24.71;40.88;101415.28;5076850;28;45235;-54
2021/09/12 08:16:48;;;;;;;;;8.00;8.00;;;;;24.70;40.50;101406.47;5076978;28;45578;-53
2021/09/12 08:19:13;;;;;;;;;9.25;5.75;;;;;24.73;40.59;101413.38;5076467;27;45395;-55
2021/09/12 08:21:39;;;;;;;;;8.25;6.25;;;;;24.75;40.77;101423.91;5076562;28;45427;-55
2021/09/12 08:24:05;;;;;;;;;8.00;7.50;;;;;24.72;40.50;101416.13;5076476;28;45783;-53
2021/09/12 08:26:31;;;;;;;;;7.00;7.00;;;;;24.77;40.48;101420.19;5077127;27;45393;-53
2021/09/12 08:28:56;;;;;;;;;7.50;7.50;;;;;24.78;40.25;101428.97;5076293;27;46314;-54
2021/09/12 08:31:21;;;;;;;;;7.00;7.00;;;;;24.78;40.28;101423.69;5076487;28;45402;-54
2021/09/12 08:33:47;;;;;;;;;6.00;6.00;;;;;24.78;40.61;101419.25;5076489;28;45369;-55
2021/09/12 08:36:12;;;;;;;;;6.50;5.50;;;;;24.77;40.15;101417.53;5076596;28;45342;-54
2021/09/12 08:38:37;;;;;;;;;6.00;6.00;;;;;24.78;39.99;101419.25;5076207;28;46487;-56
2021/09/12 08:41:03;;;;;;;;;7.00;7.00;;;;;24.78;40.52;101418.38;5076592;28;45360;-55
2021/09/12 08:43:30;;;;;;;;;7.25;6.00;;;;;24.79;39.76;101425.38;5076492;27;45350;-56
2021/09/12 08:45:55;;;;;;;;;6.75;6.00;;;;;24.79;39.64;101426.25;5076546;28;45222;-55
2021/09/12 08:48:21;;;;;;;;;6.25;5.25;;;;;24.80;39.51;101427.09;5076228;28;45642;-54
2021/09/12 08:50:46;;;;;;;;;6.00;6.00;;;;;24.80;39.75;101425.31;5076217;28;45490;-54
2021/09/12 08:53:12;;;;;;;;;7.00;7.00;;;;;24.80;39.88;101427.97;5076382;27;45345;-54
2021/09/12 08:55:37;;;;;;;;;6.25;5.50;;;;;24.80;39.71;101416.50;5078977;28;45470;-54
2021/09/12 08:58:04;;;;;;;;;6.00;6.00;;;;;24.81;39.75;101418.19;5080049;27;45380;-53
2021/09/12 09:00:30;;;;;;;;;7.25;5.25;;;;;24.80;39.36;101411.19;5079388;28;45465;-54
2021/09/12 09:03:01;;;;;;;;;5.75;5.75;;;;;24.82;39.60;101418.09;5061375;28;45345;-54
2021/09/12 09:05:31;;;;;;;;;7.50;6.00;;;;;24.83;39.46;101416.31;5079901;28;45468;-53
2021/09/12 09:08:11;;;;;;;;;5.00;5.00;;;;;24.82;39.19;101410.13;5061119;28;47429;-56
2021/09/12 09:10:44;;;;;;;;;8.00;6.50;;;;;24.84;39.79;101415.34;5079261;28;45355;-55
2021/09/12 09:13:37;;;;;;;;;6.00;5.50;;;;;24.83;39.25;101405.69;5079281;28;45237;-55
2021/09/12 09:16:04;;;;;;;;;4.25;4.25;;;;;24.86;39.61;101405.47;5079911;28;45422;-54
2021/09/12 09:18:32;;;;;;;;;5.75;4.50;;;;;24.84;39.48;101413.53;5079321;28;45242;-55
2021/09/12 09:20:58;;;;;;;;;4.00;4.00;;;;;24.85;39.35;101412.59;5079372;28;45705;-56
2021/09/12 09:23:23;;;;;;;;;6.00;5.00;;;;;24.85;39.35;101412.59;5079328;28;45560;-54
2021/09/12 09:25:50;;;;;;;;;4.75;4.00;;;;;24.87;39.51;101420.44;5079482;28;45499;-55
2021/09/12 09:28:15;;;;;;;;;5.75;5.00;;;;;24.86;38.97;101416.06;5079178;28;46328;-54
2021/09/12 09:30:46;;;;;;;;;7.50;5.25;;;;;24.88;38.96;101416.00;5078920;28;45406;-55
2021/09/12 09:33:25;;;;;;;;;6.25;5.25;;;;;24.88;39.47;101416.00;5079474;28;45299;-56
2021/09/12 09:36:02;;;;;;;;;6.00;6.00;;;;;24.88;39.14;101410.69;5079258;28;45320;-55
2021/09/12 09:38:29;;;;;;;;;5.00;5.00;;;;;24.88;39.21;101424.78;5078802;28;47485;-54
2021/09/12 09:41:10;;;;;;;;;8.75;6.00;;;;;24.89;39.13;101418.53;5078966;28;45730;-54
2021/09/12 09:43:46;;;;;;;;;5.00;5.00;;;;;24.87;38.89;101412.47;5060993;28;45419;-52
2021/09/12 09:46:32;;;;;;;;;5.00;5.00;;;;;24.91;39.00;101419.28;5079210;28;45395;-53
2021/09/12 09:48:59;;;;;;;;;5.00;5.00;;;;;24.90;38.69;101417.59;5078708;28;46394;-54
2021/09/12 09:51:25;;;;;;;;;7.00;5.00;;;;;24.91;38.86;101413.16;5078828;28;45225;-55
2021/09/12 09:53:51;;;;;;;;;7.50;5.00;;;;;24.92;38.73;101415.69;5078802;28;45195;-55
2021/09/12 09:56:17;;;;;;;;;5.00;5.00;;;;;24.91;38.70;101406.03;5079184;28;45439;-55
2021/09/12 09:58:43;;;;;;;;;4.00;4.00;;;;;24.91;39.09;101405.19;5078746;28;46422;-55
2021/09/12 10:01:09;;;;;;;;;4.00;4.00;;;;;24.92;39.21;101399.78;5078651;28;45816;-54
2021/09/12 10:03:35;;;;;;;;;6.25;6.00;;;;;24.92;39.05;101398.91;5079089;28;45327;-54
2021/09/12 10:06:00;;;;;;;;;4.00;4.00;;;;;24.93;38.77;101403.28;5078112;28;45421;-54
2021/09/12 10:08:25;;;;;;;;;4.50;4.50;;;;;24.93;38.74;101404.13;5078388;28;45487;-54
2021/09/12 10:10:51;;;;;;;;;4.00;4.00;;;;;24.94;38.55;101402.31;5078558;28;45361;-54
2021/09/12 10:13:20;;;;;;;;;6.00;4.50;;;;;24.94;38.56;101399.69;5078658;28;45485;-55
2021/09/12 10:15:49;;;;;;;;;6.75;6.00;;;;;24.93;38.73;101393.53;5078775;28;45491;-54
2021/09/12 10:18:22;;;;;;;;;5.00;5.00;;;;;24.94;38.89;101389.94;5078339;28;46101;-56
2021/09/12 10:20:47;;;;;;;;;7.00;5.00;;;;;24.94;38.47;101391.72;5078227;28;45827;-54
2021/09/12 10:23:13;;;;;;;;;4.25;4.25;;;;;24.93;38.39;101385.59;5078436;28;45253;-55
2021/09/12 10:25:47;;;;;;;;;6.00;4.75;;;;;24.93;38.32;101390.88;5078958;28;45674;-54
2021/09/12 10:28:12;;;;;;;;;5.75;5.25;;;;;24.93;38.76;101396.19;5078244;28;45367;-53
2021/09/12 10:30:42;;;;;;;;;7.00;4.00;;;;;24.91;38.95;101384.81;5078368;28;45236;-54
2021/09/12 10:33:08;;;;;;;;;3.00;3.00;;;;;24.90;38.54;101383.13;5078516;28;45420;-55
2021/09/12 10:35:42;;;;;;;;;4.75;4.75;;;;;24.89;38.56;101384.06;5078418;28;45426;-54
2021/09/12 10:38:11;;;;;;;;;3.75;3.75;;;;;24.89;38.65;101384.06;5059879;28;46918;-55
2021/09/12 10:40:45;;;;;;;;;4.25;3.50;;;;;24.89;39.09;101381.41;5078219;28;45260;-52
2021/09/12 10:43:39;;;;;;;;;4.75;4.25;;;;;24.88;39.00;101378.88;5078396;28;45262;-53
2021/09/12 10:46:04;;;;;;;;;7.25;7.00;;;;;24.88;38.56;101366.47;5078280;28;45215;-54
2021/09/12 10:48:39;;;;;;;;;7.33;7.33;;;;;24.88;39.15;101365.63;5077828;28;46647;-56
2021/09/12 10:51:07;;;;;;;;;8.00;8.00;;;;;24.88;38.57;101366.47;5077701;28;45272;-55
2021/09/12 10:53:45;;;;;;;;;6.50;6.50;;;;;24.89;39.02;101378.75;5078071;28;45302;-55
2021/09/12 10:56:17;;;;;;;;;5.75;5.75;;;;;24.89;38.98;101385.88;5078258;28;45322;-54
2021/09/12 10:58:57;;;;;;;;;11.50;11.00;;;;;24.89;38.92;101369.97;5077706;28;46178;-54
2021/09/12 11:01:41;;;;;;;;;8.00;8.00;;;;;24.90;38.94;101380.47;5077447;28;45339;-53
2021/09/12 11:04:08;;;;;;;;;7.25;7.25;;;;;24.90;39.03;101364.56;5078189;28;45345;-53
2021/09/12 11:06:36;;;;;;;;;11.00;9.00;;;;;24.91;39.03;101378.69;5077875;28;45566;-55
2021/09/12 11:09:15;;;;;;;;;15.00;11.75;;;;;24.93;38.89;101360.84;5077561;28;45371;-54
2021/09/12 11:11:40;;;;;;;;;8.25;8.25;;;;;24.91;39.20;101350.34;5077638;28;45800;-55
2021/09/12 11:14:08;;;;;;;;;9.50;9.50;;;;;24.93;39.05;101352.91;5077653;28;45371;-56
2021/09/12 11:16:33;;;;;;;;;12.25;12.00;;;;;24.93;39.24;101352.91;5077671;28;45611;-54
2021/09/12 11:19:02;;;;;;;;;12.75;12.00;;;;;24.92;39.12;101360.00;5075979;28;46430;-55
2021/09/12 11:21:45;;;;;;;;;13.75;11.50;;;;;24.94;38.80;101363.41;5077468;28;45941;-55